This is the latest recevied weather packets stored in our database for station/object AD8IZ-13. If no packets are shown the sender has not sent any weather packets the latest 10 day(s).
| Time | Temp. | Humidity | Pressure | Rain* | Wind** | Luminosity | Snow |
|---|---|---|---|---|---|---|---|
| 1778018721 | 17.22° C | 90% | 1008 hPa | 1.78 mm | - | 40 W/m² | - |
| 1778018118 | 20° C | 80% | 1007.7 hPa | 1.52 mm | - | 17 W/m² | - |
| 1778017519 | 21.11° C | 66% | 1006.8 hPa | 0 mm | - | 24 W/m² | - |
| 1778016922 | 21.11° C | 65% | 1006.7 hPa | 0 mm | - | 63 W/m² | - |
| 1778016319 | 21.11° C | 65% | 1006.7 hPa | 0 mm | - | 119 W/m² | - |
| 1778015719 | 21.67° C | 65% | 1006.6 hPa | 0 mm | - | 210 W/m² | - |
| 1778015119 | 21.11° C | 65% | 1006.6 hPa | 0 mm | - | 328 W/m² | - |
| 1778014521 | 21.11° C | 66% | 1006.9 hPa | 0 mm | - | 260 W/m² | - |
| 1778013919 | 20.56° C | 66% | 1007 hPa | 0 mm | - | 59 W/m² | - |
| 1778013320 | 21.11° C | 67% | 1007.1 hPa | 0 mm | - | 87 W/m² | - |
| 1778012721 | 21.11° C | 67% | 1007.1 hPa | 0 mm | - | 100 W/m² | - |
| 1778012120 | 21.11° C | 66% | 1007.2 hPa | 0 mm | - | 148 W/m² | - |
| 1778011520 | 20.56° C | 67% | 1007.4 hPa | 0 mm | - | 179 W/m² | - |
| 1778010919 | 20.56° C | 66% | 1007.4 hPa | 0 mm | - | 175 W/m² | - |
| 1778010327 | 20.56° C | 67% | 1007.5 hPa | 0 mm | - | 178 W/m² | - |
| 1778009720 | 20.56° C | 68% | 1007.7 hPa | 0 mm | - | 198 W/m² | - |
| 1778009121 | 20.56° C | 67% | 1007.9 hPa | 0 mm | - | 136 W/m² | - |
| 1778008518 | 20.56° C | 68% | 1008 hPa | 0 mm | - | 108 W/m² | - |
| 1778007918 | 20.56° C | 67% | 1008.1 hPa | 0 mm | - | 169 W/m² | - |
| 1778007319 | 20° C | 67% | 1008.2 hPa | 0 mm | - | 158 W/m² | - |
| 1778006721 | 20° C | 67% | 1008.3 hPa | 0 mm | - | 135 W/m² | - |
| 1778006118 | 20° C | 67% | 1008.3 hPa | 0 mm | - | 135 W/m² | - |
| 1778005519 | 20° C | 68% | 1008.2 hPa | 0 mm | - | 96 W/m² | - |
| 1778004924 | 20.56° C | 66% | 1008.1 hPa | 0 mm | - | 69 W/m² | - |
| 1778004319 | 20.56° C | 66% | 1008.1 hPa | 0 mm | - | 154 W/m² | - |
* Rain latest hour (hover to see other rain measurements)
** Current wind speed in m/s (hover to see current wind gust speed)